METAR Data
IDs: Format: Raw Decoded Include TAF

Data at: 1749 UTC 21 Sep 2018

KMRF 211656Z AUTO 02007KT 10SM 24/16 A3017 RMK AO2 SLP161 T02440156 $
KMRF 211556Z AUTO 01005KT 10SM 22/16 A3016 RMK AO2 SLP159 T02220161 $
KMRF 211456Z AUTO 29010KT 10SM 20/17 A3015 RMK AO2 SLP157 6//// T02000167 51016 $
KMRF 211356Z AUTO 29006KT 10SM 18/17 A3013 RMK AO2 SLP155 T01830167 $
KMRF 211256Z AUTO 32003KT 10SM 16/15 A3011 RMK AO2 SLP148 T01610150 $
KMRF 211156Z AUTO 28007KT 10SM 17/16 A3009 RMK AO2 SLP137 6//// 7//// T01670161 10178 20161 $
KMRF 211056Z AUTO 10SM 17/16 RMK AO2 SLPNO T01670156 $
KMRF 210956Z AUTO 28006KT 10SM 16/16 A3007 RMK AO2 SLP129 T01610156 $
KMRF 210856Z AUTO 28006KT 10SM 16/16 A3007 RMK AO2 SLP129 6//// T01610156 55005 $
KMRF 210756Z AUTO 27003KT 10SM 17/16 A3006 RMK AO2 SLP127 T01670161 TSNO $
KMRF 210656Z AUTO 22006KT 10SM 17/17 A3007 RMK AO2 SLP130 T01720167 402280150 $
KMRF 210556Z AUTO 27004KT 10SM 18/17 A3008 RMK AO2 SLP134 6//// T01780167 10228 20172 51007 $
KMRF 210456Z AUTO 23004KT 10SM 18/17 A3007 RMK AO2 SLP133 T01780167 $
KMRF 210356Z AUTO 10SM 18/17 A3007 RMK AO2 RAE09 SLP134 P0000 T01780172 $
KMRF 210256Z AUTO 22005KT 10SM -RA 18/17 A3006 RMK AO2 RAB12 SLP130 6//// T01830172 51021 $
KMRF 210156Z AUTO 24005KT 10SM 18/17 A3004 RMK AO2 RAE50 SLP125 P0007 T01830172 $
KMRF 210056Z AUTO 20013KT 10SM -RA 21/16 A3001 RMK AO2 RAB47 SLPNO P0000 T02060161 $
KMRF 202356Z AUTO 19014KT 10SM 23/16 A2999 RMK AO2 SLPNO 6//// T02280156 10228 20206 55003 $
KMRF 202256Z AUTO 17010KT 10SM 22/17 A2998 RMK AO2 RAB24E43 SLPNO P0000 T02220172 $
KMRF 202156Z AUTO 17014G19KT 10SM 23/17 A2998 RMK AO2 SLPNO T02280172 $
KMRF 202056Z AUTO 19013KT 10SM 22/17 A3000 RMK AO2 SLPNO T02220167 56022 $
KMRF 201956Z AUTO 18015KT 10SM 22/16 A3002 RMK AO2 SLP115 T02220161 $
KMRF 201856Z AUTO 18013KT 10SM 22/17 A3005 RMK AO2 SLP123 T02220167 $
KMRF 201756Z AUTO 18015G20KT 10SM 22/17 A3007 RMK AO2 SLP132 6//// T02170167 $
KMRF 201656Z AUTO 10SM 20/17 RMK AO2 RAB10E36 SLPNO P0000 T02000167 $
KMRF 201556Z AUTO 17014KT 19/16 A3008 RMK AO2 SLP136 T01940161 RVRNO $
KMRF 201456Z AUTO 16008KT 10SM 18/17 A3008 RMK AO2 UPB09UPEMMRAB17E30 SLP135 6//// T01830167 $
KMRF 201356Z AUTO 17/16 RMK AO2 SLPNO T01720161 TSNO RVRNO $
KMRF 201256Z AUTO 10SM RMK AO2 SLPNO FZRANO $
KMRF 200956Z AUTO 10SM RMK AO2 SLPNO FZRANO $
KMRF 200856Z AUTO 10SM RMK AO2 SLPNO 6//// FZRANO TSNO $
KMRF 200556Z AUTO 00000KT 10SM 17/16 A3008 RMK AO2 SLP128 6//// T01720156 10217 20172 50001 $